sensor_id;sensor_type;location;lat;lon;timestamp;P1;durP1;ratioP1;P2;durP2;ratioP2
59273;SDS011;45044;41.572;24.730;2023-05-18T00:01:15;10.30;;;5.50;;
59273;SDS011;45044;41.572;24.730;2023-05-18T00:03:42;17.17;;;9.00;;
59273;SDS011;45044;41.572;24.730;2023-05-18T00:06:09;9.35;;;4.47;;
59273;SDS011;45044;41.572;24.730;2023-05-18T00:08:36;12.10;;;5.55;;
59273;SDS011;45044;41.572;24.730;2023-05-18T00:11:04;8.70;;;4.57;;
59273;SDS011;45044;41.572;24.730;2023-05-18T00:13:32;9.55;;;3.63;;
59273;SDS011;45044;41.572;24.730;2023-05-18T00:15:59;10.25;;;4.03;;
59273;SDS011;45044;41.572;24.730;2023-05-18T00:18:26;10.30;;;4.22;;
59273;SDS011;45044;41.572;24.730;2023-05-18T00:20:53;7.25;;;3.65;;
59273;SDS011;45044;41.572;24.730;2023-05-18T00:23:27;10.10;;;4.20;;
59273;SDS011;45044;41.572;24.730;2023-05-18T00:25:56;10.07;;;4.80;;
59273;SDS011;45044;41.572;24.730;2023-05-18T00:28:24;7.45;;;3.75;;
59273;SDS011;45044;41.572;24.730;2023-05-18T00:30:54;7.43;;;3.80;;
59273;SDS011;45044;41.572;24.730;2023-05-18T00:33:22;7.65;;;4.18;;
59273;SDS011;45044;41.572;24.730;2023-05-18T00:35:49;7.43;;;3.83;;
59273;SDS011;45044;41.572;24.730;2023-05-18T00:38:15;7.25;;;4.20;;
59273;SDS011;45044;41.572;24.730;2023-05-18T00:40:43;9.23;;;4.05;;
59273;SDS011;45044;41.572;24.730;2023-05-18T00:43:09;11.10;;;5.97;;
59273;SDS011;45044;41.572;24.730;2023-05-18T00:45:36;8.50;;;4.03;;
59273;SDS011;45044;41.572;24.730;2023-05-18T00:48:04;7.68;;;3.10;;
59273;SDS011;45044;41.572;24.730;2023-05-18T00:50:31;6.70;;;3.63;;
59273;SDS011;45044;41.572;24.730;2023-05-18T00:52:58;6.72;;;3.38;;
59273;SDS011;45044;41.572;24.730;2023-05-18T00:55:26;8.07;;;3.60;;
59273;SDS011;45044;41.572;24.730;2023-05-18T00:57:56;6.88;;;3.70;;
59273;SDS011;45044;41.572;24.730;2023-05-18T01:00:27;8.02;;;3.10;;
59273;SDS011;45044;41.572;24.730;2023-05-18T01:02:54;6.10;;;3.13;;
59273;SDS011;45044;41.572;24.730;2023-05-18T01:05:22;7.28;;;3.60;;
59273;SDS011;45044;41.572;24.730;2023-05-18T01:07:49;11.10;;;4.55;;
59273;SDS011;45044;41.572;24.730;2023-05-18T01:10:17;7.68;;;4.00;;
59273;SDS011;45044;41.572;24.730;2023-05-18T01:15:36;7.90;;;3.70;;
59273;SDS011;45044;41.572;24.730;2023-05-18T01:18:15;8.40;;;4.13;;
59273;SDS011;45044;41.572;24.730;2023-05-18T01:20:49;8.60;;;4.18;;
59273;SDS011;45044;41.572;24.730;2023-05-18T01:26:29;7.95;;;3.92;;
59273;SDS011;45044;41.572;24.730;2023-05-18T01:29:04;6.90;;;3.50;;
59273;SDS011;45044;41.572;24.730;2023-05-18T01:31:34;8.50;;;4.18;;
59273;SDS011;45044;41.572;24.730;2023-05-18T01:34:02;9.07;;;3.45;;
59273;SDS011;45044;41.572;24.730;2023-05-18T01:36:31;8.07;;;3.70;;
59273;SDS011;45044;41.572;24.730;2023-05-18T01:39:00;7.05;;;3.65;;
59273;SDS011;45044;41.572;24.730;2023-05-18T01:41:28;8.15;;;3.75;;
59273;SDS011;45044;41.572;24.730;2023-05-18T01:44:05;9.10;;;4.57;;
59273;SDS011;45044;41.572;24.730;2023-05-18T01:46:56;7.93;;;4.28;;
59273;SDS011;45044;41.572;24.730;2023-05-18T01:49:32;6.60;;;3.58;;
59273;SDS011;45044;41.572;24.730;2023-05-18T01:52:06;7.45;;;3.50;;
59273;SDS011;45044;41.572;24.730;2023-05-18T01:54:40;7.47;;;3.73;;
59273;SDS011;45044;41.572;24.730;2023-05-18T01:57:10;8.65;;;3.40;;
59273;SDS011;45044;41.572;24.730;2023-05-18T01:59:37;6.68;;;3.65;;
59273;SDS011;45044;41.572;24.730;2023-05-18T02:02:04;7.93;;;3.58;;
59273;SDS011;45044;41.572;24.730;2023-05-18T02:04:31;8.45;;;4.50;;
59273;SDS011;45044;41.572;24.730;2023-05-18T02:06:58;8.27;;;4.47;;
59273;SDS011;45044;41.572;24.730;2023-05-18T02:09:25;6.55;;;3.60;;
59273;SDS011;45044;41.572;24.730;2023-05-18T02:11:52;9.13;;;4.63;;
59273;SDS011;45044;41.572;24.730;2023-05-18T02:14:18;12.02;;;5.85;;
59273;SDS011;45044;41.572;24.730;2023-05-18T02:16:45;9.00;;;3.45;;
59273;SDS011;45044;41.572;24.730;2023-05-18T02:19:13;7.85;;;3.30;;
59273;SDS011;45044;41.572;24.730;2023-05-18T02:21:40;6.25;;;3.55;;
59273;SDS011;45044;41.572;24.730;2023-05-18T02:24:08;5.57;;;3.20;;
59273;SDS011;45044;41.572;24.730;2023-05-18T02:26:36;10.30;;;4.03;;
59273;SDS011;45044;41.572;24.730;2023-05-18T02:29:05;8.93;;;4.15;;
59273;SDS011;45044;41.572;24.730;2023-05-18T02:31:34;9.75;;;4.30;;
59273;SDS011;45044;41.572;24.730;2023-05-18T02:34:02;8.80;;;4.10;;
59273;SDS011;45044;41.572;24.730;2023-05-18T02:36:29;10.13;;;4.82;;
59273;SDS011;45044;41.572;24.730;2023-05-18T02:39:05;7.90;;;4.70;;
59273;SDS011;45044;41.572;24.730;2023-05-18T02:41:33;10.07;;;4.75;;
59273;SDS011;45044;41.572;24.730;2023-05-18T02:44:00;9.70;;;3.90;;
59273;SDS011;45044;41.572;24.730;2023-05-18T02:46:29;8.85;;;3.28;;
59273;SDS011;45044;41.572;24.730;2023-05-18T02:48:56;8.77;;;3.72;;
59273;SDS011;45044;41.572;24.730;2023-05-18T02:51:24;10.93;;;3.95;;
59273;SDS011;45044;41.572;24.730;2023-05-18T02:53:51;10.50;;;4.50;;
59273;SDS011;45044;41.572;24.730;2023-05-18T02:56:18;24.05;;;6.50;;
59273;SDS011;45044;41.572;24.730;2023-05-18T02:58:44;12.13;;;5.80;;
59273;SDS011;45044;41.572;24.730;2023-05-18T03:01:11;13.10;;;4.90;;
59273;SDS011;45044;41.572;24.730;2023-05-18T03:03:38;10.57;;;3.80;;
59273;SDS011;45044;41.572;24.730;2023-05-18T03:06:09;7.95;;;3.05;;
59273;SDS011;45044;41.572;24.730;2023-05-18T03:08:36;10.18;;;5.22;;
59273;SDS011;45044;41.572;24.730;2023-05-18T03:11:02;12.10;;;5.22;;
59273;SDS011;45044;41.572;24.730;2023-05-18T03:13:29;11.65;;;4.38;;
59273;SDS011;45044;41.572;24.730;2023-05-18T03:15:56;14.07;;;4.78;;
59273;SDS011;45044;41.572;24.730;2023-05-18T03:18:23;30.88;;;7.05;;
59273;SDS011;45044;41.572;24.730;2023-05-18T03:20:51;20.00;;;4.70;;
59273;SDS011;45044;41.572;24.730;2023-05-18T03:23:18;9.00;;;4.00;;
59273;SDS011;45044;41.572;24.730;2023-05-18T03:25:45;12.43;;;4.25;;
59273;SDS011;45044;41.572;24.730;2023-05-18T03:28:12;15.63;;;5.63;;
59273;SDS011;45044;41.572;24.730;2023-05-18T03:30:39;24.25;;;8.43;;
59273;SDS011;45044;41.572;24.730;2023-05-18T03:33:05;32.97;;;10.98;;
59273;SDS011;45044;41.572;24.730;2023-05-18T03:35:32;35.10;;;6.57;;
59273;SDS011;45044;41.572;24.730;2023-05-18T03:37:59;22.63;;;7.03;;
59273;SDS011;45044;41.572;24.730;2023-05-18T03:40:26;59.72;;;11.60;;
59273;SDS011;45044;41.572;24.730;2023-05-18T03:42:52;27.52;;;9.45;;
59273;SDS011;45044;41.572;24.730;2023-05-18T03:45:19;22.25;;;9.38;;
59273;SDS011;45044;41.572;24.730;2023-05-18T03:47:46;19.35;;;8.85;;
59273;SDS011;45044;41.572;24.730;2023-05-18T03:50:13;23.27;;;8.43;;
59273;SDS011;45044;41.572;24.730;2023-05-18T03:52:41;23.10;;;9.70;;
59273;SDS011;45044;41.572;24.730;2023-05-18T03:55:09;25.08;;;8.95;;
59273;SDS011;45044;41.572;24.730;2023-05-18T03:57:37;29.08;;;7.35;;
59273;SDS011;45044;41.572;24.730;2023-05-18T04:00:05;17.73;;;5.80;;
59273;SDS011;45044;41.572;24.730;2023-05-18T04:02:38;35.88;;;8.52;;
59273;SDS011;45044;41.572;24.730;2023-05-18T04:05:05;35.85;;;15.50;;
59273;SDS011;45044;41.572;24.730;2023-05-18T04:07:32;47.17;;;15.32;;
59273;SDS011;45044;41.572;24.730;2023-05-18T04:09:59;49.28;;;12.60;;
59273;SDS011;45044;41.572;24.730;2023-05-18T04:12:26;49.35;;;25.42;;
59273;SDS011;45044;41.572;24.730;2023-05-18T04:14:53;60.50;;;21.80;;
59273;SDS011;45044;41.572;24.730;2023-05-18T04:17:20;66.75;;;19.40;;
59273;SDS011;45044;41.572;24.730;2023-05-18T04:19:48;50.03;;;14.30;;
59273;SDS011;45044;41.572;24.730;2023-05-18T04:22:15;77.03;;;17.20;;
59273;SDS011;45044;41.572;24.730;2023-05-18T04:24:42;21.48;;;11.88;;
59273;SDS011;45044;41.572;24.730;2023-05-18T04:27:13;24.95;;;12.90;;
59273;SDS011;45044;41.572;24.730;2023-05-18T04:29:40;21.08;;;11.88;;
59273;SDS011;45044;41.572;24.730;2023-05-18T04:32:09;33.75;;;13.10;;
59273;SDS011;45044;41.572;24.730;2023-05-18T04:34:36;17.48;;;10.43;;
59273;SDS011;45044;41.572;24.730;2023-05-18T04:37:03;14.07;;;8.57;;
59273;SDS011;45044;41.572;24.730;2023-05-18T04:39:31;14.02;;;8.30;;
59273;SDS011;45044;41.572;24.730;2023-05-18T04:42:00;20.75;;;11.18;;
59273;SDS011;45044;41.572;24.730;2023-05-18T04:44:30;20.20;;;11.95;;
59273;SDS011;45044;41.572;24.730;2023-05-18T04:47:06;21.75;;;10.43;;
59273;SDS011;45044;41.572;24.730;2023-05-18T04:49:33;20.80;;;12.80;;
59273;SDS011;45044;41.572;24.730;2023-05-18T04:52:00;24.65;;;13.88;;
59273;SDS011;45044;41.572;24.730;2023-05-18T04:54:28;25.35;;;12.27;;
59273;SDS011;45044;41.572;24.730;2023-05-18T04:56:58;19.75;;;12.10;;
59273;SDS011;45044;41.572;24.730;2023-05-18T04:59:25;20.77;;;10.90;;
59273;SDS011;45044;41.572;24.730;2023-05-18T05:01:54;14.68;;;9.65;;
59273;SDS011;45044;41.572;24.730;2023-05-18T05:04:21;11.90;;;8.10;;
59273;SDS011;45044;41.572;24.730;2023-05-18T05:06:49;11.40;;;7.22;;
59273;SDS011;45044;41.572;24.730;2023-05-18T05:09:16;13.27;;;8.27;;
59273;SDS011;45044;41.572;24.730;2023-05-18T05:11:43;11.90;;;7.55;;
59273;SDS011;45044;41.572;24.730;2023-05-18T05:14:10;12.95;;;7.47;;
59273;SDS011;45044;41.572;24.730;2023-05-18T05:16:37;14.13;;;8.57;;
59273;SDS011;45044;41.572;24.730;2023-05-18T05:19:04;10.63;;;6.93;;
59273;SDS011;45044;41.572;24.730;2023-05-18T05:21:31;9.35;;;6.82;;
59273;SDS011;45044;41.572;24.730;2023-05-18T05:23:58;11.18;;;7.15;;
59273;SDS011;45044;41.572;24.730;2023-05-18T05:26:27;13.75;;;8.52;;
59273;SDS011;45044;41.572;24.730;2023-05-18T05:28:53;12.70;;;7.65;;
59273;SDS011;45044;41.572;24.730;2023-05-18T05:31:20;8.63;;;5.20;;
59273;SDS011;45044;41.572;24.730;2023-05-18T05:33:47;7.32;;;4.80;;
59273;SDS011;45044;41.572;24.730;2023-05-18T05:36:13;10.07;;;6.13;;
59273;SDS011;45044;41.572;24.730;2023-05-18T05:38:41;12.00;;;7.10;;
59273;SDS011;45044;41.572;24.730;2023-05-18T05:41:07;11.57;;;5.72;;
59273;SDS011;45044;41.572;24.730;2023-05-18T05:43:34;11.07;;;7.05;;
59273;SDS011;45044;41.572;24.730;2023-05-18T05:46:01;8.75;;;4.70;;
59273;SDS011;45044;41.572;24.730;2023-05-18T05:48:28;7.90;;;3.85;;
59273;SDS011;45044;41.572;24.730;2023-05-18T05:50:55;10.35;;;5.03;;
59273;SDS011;45044;41.572;24.730;2023-05-18T05:53:22;11.02;;;5.47;;
59273;SDS011;45044;41.572;24.730;2023-05-18T05:55:48;10.13;;;5.88;;
59273;SDS011;45044;41.572;24.730;2023-05-18T05:58:15;9.55;;;6.68;;
59273;SDS011;45044;41.572;24.730;2023-05-18T06:00:42;11.60;;;6.35;;
59273;SDS011;45044;41.572;24.730;2023-05-18T06:03:12;9.27;;;5.47;;
59273;SDS011;45044;41.572;24.730;2023-05-18T06:05:38;4.30;;;2.75;;
59273;SDS011;45044;41.572;24.730;2023-05-18T06:08:05;5.13;;;2.33;;
59273;SDS011;45044;41.572;24.730;2023-05-18T06:10:32;5.22;;;2.50;;
59273;SDS011;45044;41.572;24.730;2023-05-18T06:12:59;6.60;;;2.20;;
59273;SDS011;45044;41.572;24.730;2023-05-18T06:15:26;4.80;;;2.47;;
59273;SDS011;45044;41.572;24.730;2023-05-18T06:17:54;8.32;;;3.58;;
59273;SDS011;45044;41.572;24.730;2023-05-18T06:20:21;4.80;;;3.05;;
59273;SDS011;45044;41.572;24.730;2023-05-18T06:22:48;6.63;;;3.05;;
59273;SDS011;45044;41.572;24.730;2023-05-18T06:25:15;6.65;;;4.03;;
59273;SDS011;45044;41.572;24.730;2023-05-18T06:27:43;6.90;;;3.10;;
59273;SDS011;45044;41.572;24.730;2023-05-18T06:30:11;5.90;;;3.47;;
59273;SDS011;45044;41.572;24.730;2023-05-18T06:32:38;7.32;;;4.00;;
59273;SDS011;45044;41.572;24.730;2023-05-18T06:35:06;9.52;;;4.10;;
59273;SDS011;45044;41.572;24.730;2023-05-18T06:37:33;8.05;;;4.20;;
59273;SDS011;45044;41.572;24.730;2023-05-18T06:40:00;7.13;;;4.18;;
59273;SDS011;45044;41.572;24.730;2023-05-18T06:42:27;6.53;;;2.97;;
59273;SDS011;45044;41.572;24.730;2023-05-18T06:44:56;4.38;;;2.88;;
59273;SDS011;45044;41.572;24.730;2023-05-18T06:47:23;7.15;;;2.75;;
59273;SDS011;45044;41.572;24.730;2023-05-18T06:49:50;4.38;;;2.45;;
59273;SDS011;45044;41.572;24.730;2023-05-18T06:52:17;6.50;;;2.38;;
59273;SDS011;45044;41.572;24.730;2023-05-18T06:54:43;5.72;;;2.70;;
59273;SDS011;45044;41.572;24.730;2023-05-18T06:57:10;6.53;;;2.55;;
59273;SDS011;45044;41.572;24.730;2023-05-18T06:59:37;8.13;;;3.35;;
59273;SDS011;45044;41.572;24.730;2023-05-18T07:02:04;19.25;;;8.02;;
59273;SDS011;45044;41.572;24.730;2023-05-18T07:04:31;15.48;;;6.90;;
59273;SDS011;45044;41.572;24.730;2023-05-18T07:06:58;7.65;;;3.17;;
59273;SDS011;45044;41.572;24.730;2023-05-18T07:09:24;10.75;;;4.60;;
59273;SDS011;45044;41.572;24.730;2023-05-18T07:11:51;7.05;;;2.45;;
59273;SDS011;45044;41.572;24.730;2023-05-18T07:14:18;7.03;;;3.10;;
59273;SDS011;45044;41.572;24.730;2023-05-18T07:16:45;11.10;;;4.18;;
59273;SDS011;45044;41.572;24.730;2023-05-18T07:19:12;8.30;;;3.70;;
59273;SDS011;45044;41.572;24.730;2023-05-18T07:21:40;8.95;;;3.10;;
59273;SDS011;45044;41.572;24.730;2023-05-18T07:24:08;8.10;;;3.13;;
59273;SDS011;45044;41.572;24.730;2023-05-18T07:26:35;8.27;;;2.88;;
59273;SDS011;45044;41.572;24.730;2023-05-18T07:29:02;9.82;;;3.00;;
59273;SDS011;45044;41.572;24.730;2023-05-18T07:31:29;5.70;;;2.90;;
59273;SDS011;45044;41.572;24.730;2023-05-18T07:33:56;7.53;;;3.10;;
59273;SDS011;45044;41.572;24.730;2023-05-18T07:36:22;9.75;;;4.93;;
59273;SDS011;45044;41.572;24.730;2023-05-18T07:38:50;9.95;;;5.00;;
59273;SDS011;45044;41.572;24.730;2023-05-18T07:41:20;11.25;;;4.50;;
59273;SDS011;45044;41.572;24.730;2023-05-18T07:43:48;8.80;;;4.40;;
59273;SDS011;45044;41.572;24.730;2023-05-18T07:46:16;11.15;;;4.05;;
59273;SDS011;45044;41.572;24.730;2023-05-18T07:48:43;7.07;;;3.60;;
59273;SDS011;45044;41.572;24.730;2023-05-18T07:51:10;9.23;;;4.32;;
59273;SDS011;45044;41.572;24.730;2023-05-18T07:53:37;9.95;;;4.93;;
59273;SDS011;45044;41.572;24.730;2023-05-18T07:56:06;7.18;;;3.42;;
59273;SDS011;45044;41.572;24.730;2023-05-18T07:58:34;7.95;;;3.65;;
59273;SDS011;45044;41.572;24.730;2023-05-18T08:01:02;6.07;;;2.70;;
59273;SDS011;45044;41.572;24.730;2023-05-18T08:03:29;8.07;;;3.28;;
59273;SDS011;45044;41.572;24.730;2023-05-18T08:05:56;5.85;;;2.10;;
59273;SDS011;45044;41.572;24.730;2023-05-18T08:08:23;3.70;;;1.85;;
59273;SDS011;45044;41.572;24.730;2023-05-18T08:10:50;3.38;;;1.90;;
59273;SDS011;45044;41.572;24.730;2023-05-18T08:13:18;4.72;;;2.22;;
59273;SDS011;45044;41.572;24.730;2023-05-18T08:15:45;5.78;;;2.80;;
59273;SDS011;45044;41.572;24.730;2023-05-18T08:18:21;4.32;;;1.98;;
59273;SDS011;45044;41.572;24.730;2023-05-18T08:20:48;7.47;;;3.17;;
59273;SDS011;45044;41.572;24.730;2023-05-18T08:23:19;3.72;;;1.88;;
59273;SDS011;45044;41.572;24.730;2023-05-18T08:25:45;5.75;;;3.33;;
59273;SDS011;45044;41.572;24.730;2023-05-18T08:28:12;6.70;;;2.95;;
59273;SDS011;45044;41.572;24.730;2023-05-18T08:30:39;6.10;;;2.85;;
59273;SDS011;45044;41.572;24.730;2023-05-18T08:33:06;6.32;;;2.80;;
59273;SDS011;45044;41.572;24.730;2023-05-18T08:35:33;6.15;;;3.10;;
59273;SDS011;45044;41.572;24.730;2023-05-18T08:38:00;5.82;;;3.10;;
59273;SDS011;45044;41.572;24.730;2023-05-18T08:41:15;4.70;;;2.60;;
59273;SDS011;45044;41.572;24.730;2023-05-18T08:43:44;4.95;;;2.55;;
59273;SDS011;45044;41.572;24.730;2023-05-18T08:48:50;4.43;;;2.40;;
59273;SDS011;45044;41.572;24.730;2023-05-18T08:51:19;5.35;;;2.58;;
59273;SDS011;45044;41.572;24.730;2023-05-18T08:53:49;4.38;;;2.90;;
59273;SDS011;45044;41.572;24.730;2023-05-18T08:56:22;4.88;;;2.47;;
59273;SDS011;45044;41.572;24.730;2023-05-18T08:58:51;4.65;;;2.22;;
59273;SDS011;45044;41.572;24.730;2023-05-18T09:01:21;4.40;;;2.42;;
59273;SDS011;45044;41.572;24.730;2023-05-18T09:03:57;8.48;;;2.90;;
59273;SDS011;45044;41.572;24.730;2023-05-18T09:06:25;4.40;;;2.40;;
59273;SDS011;45044;41.572;24.730;2023-05-18T09:08:54;6.55;;;2.97;;
59273;SDS011;45044;41.572;24.730;2023-05-18T09:11:24;5.22;;;2.50;;
59273;SDS011;45044;41.572;24.730;2023-05-18T09:13:52;4.70;;;2.80;;
59273;SDS011;45044;41.572;24.730;2023-05-18T09:16:20;6.32;;;2.90;;
59273;SDS011;45044;41.572;24.730;2023-05-18T09:18:47;5.80;;;2.72;;
59273;SDS011;45044;41.572;24.730;2023-05-18T09:21:14;8.57;;;4.15;;
59273;SDS011;45044;41.572;24.730;2023-05-18T09:23:40;6.57;;;3.13;;
59273;SDS011;45044;41.572;24.730;2023-05-18T09:26:09;6.00;;;3.28;;
59273;SDS011;45044;41.572;24.730;2023-05-18T09:28:37;4.65;;;2.88;;
59273;SDS011;45044;41.572;24.730;2023-05-18T09:31:15;3.83;;;2.05;;
59273;SDS011;45044;41.572;24.730;2023-05-18T09:33:43;5.75;;;2.63;;
59273;SDS011;45044;41.572;24.730;2023-05-18T09:36:11;5.07;;;2.58;;
59273;SDS011;45044;41.572;24.730;2023-05-18T09:38:41;5.88;;;3.33;;
59273;SDS011;45044;41.572;24.730;2023-05-18T09:41:12;6.07;;;3.50;;
59273;SDS011;45044;41.572;24.730;2023-05-18T09:43:40;6.60;;;2.80;;
59273;SDS011;45044;41.572;24.730;2023-05-18T09:46:09;5.30;;;2.53;;
59273;SDS011;45044;41.572;24.730;2023-05-18T09:48:41;5.80;;;2.83;;
59273;SDS011;45044;41.572;24.730;2023-05-18T09:51:10;7.30;;;3.92;;
59273;SDS011;45044;41.572;24.730;2023-05-18T09:53:42;20.92;;;13.10;;
59273;SDS011;45044;41.572;24.730;2023-05-18T09:56:15;6.57;;;3.28;;
59273;SDS011;45044;41.572;24.730;2023-05-18T09:58:43;8.00;;;3.70;;
59273;SDS011;45044;41.572;24.730;2023-05-18T10:01:10;7.57;;;4.72;;
59273;SDS011;45044;41.572;24.730;2023-05-18T10:03:37;8.43;;;5.88;;
59273;SDS011;45044;41.572;24.730;2023-05-18T10:06:08;9.30;;;3.17;;
59273;SDS011;45044;41.572;24.730;2023-05-18T10:08:38;6.20;;;2.88;;
59273;SDS011;45044;41.572;24.730;2023-05-18T10:11:05;4.70;;;3.35;;
59273;SDS011;45044;41.572;24.730;2023-05-18T10:13:33;19.60;;;8.52;;
59273;SDS011;45044;41.572;24.730;2023-05-18T10:16:01;9.18;;;5.85;;
59273;SDS011;45044;41.572;24.730;2023-05-18T10:18:30;39.00;;;18.20;;
59273;SDS011;45044;41.572;24.730;2023-05-18T10:21:03;43.30;;;20.83;;
59273;SDS011;45044;41.572;24.730;2023-05-18T10:23:32;36.90;;;18.30;;
59273;SDS011;45044;41.572;24.730;2023-05-18T10:26:03;16.30;;;8.45;;
59273;SDS011;45044;41.572;24.730;2023-05-18T10:28:33;15.23;;;8.90;;
59273;SDS011;45044;41.572;24.730;2023-05-18T10:31:03;16.48;;;9.65;;
59273;SDS011;45044;41.572;24.730;2023-05-18T10:33:32;8.00;;;4.00;;
59273;SDS011;45044;41.572;24.730;2023-05-18T10:36:02;15.23;;;8.75;;
59273;SDS011;45044;41.572;24.730;2023-05-18T10:38:30;13.63;;;7.57;;
59273;SDS011;45044;41.572;24.730;2023-05-18T10:40:59;10.38;;;4.57;;
59273;SDS011;45044;41.572;24.730;2023-05-18T10:43:26;7.35;;;3.58;;
59273;SDS011;45044;41.572;24.730;2023-05-18T10:45:59;8.65;;;4.18;;
59273;SDS011;45044;41.572;24.730;2023-05-18T10:48:27;8.95;;;4.30;;
59273;SDS011;45044;41.572;24.730;2023-05-18T10:50:56;5.38;;;2.70;;
59273;SDS011;45044;41.572;24.730;2023-05-18T10:53:24;4.43;;;1.85;;
59273;SDS011;45044;41.572;24.730;2023-05-18T10:55:52;6.32;;;3.08;;
59273;SDS011;45044;41.572;24.730;2023-05-18T10:58:21;9.40;;;5.43;;
59273;SDS011;45044;41.572;24.730;2023-05-18T11:01:00;4.40;;;2.60;;
59273;SDS011;45044;41.572;24.730;2023-05-18T11:03:31;7.35;;;3.15;;
59273;SDS011;45044;41.572;24.730;2023-05-18T11:06:05;6.38;;;3.55;;
59273;SDS011;45044;41.572;24.730;2023-05-18T11:08:45;7.30;;;3.60;;
59273;SDS011;45044;41.572;24.730;2023-05-18T11:11:13;6.03;;;2.33;;
59273;SDS011;45044;41.572;24.730;2023-05-18T11:13:47;5.38;;;2.90;;
59273;SDS011;45044;41.572;24.730;2023-05-18T11:16:15;6.00;;;3.05;;
59273;SDS011;45044;41.572;24.730;2023-05-18T11:18:44;6.97;;;2.97;;
59273;SDS011;45044;41.572;24.730;2023-05-18T11:27:00;5.40;;;2.50;;
59273;SDS011;45044;41.572;24.730;2023-05-18T11:29:41;5.53;;;3.25;;
59273;SDS011;45044;41.572;24.730;2023-05-18T11:32:22;7.25;;;3.35;;
59273;SDS011;45044;41.572;24.730;2023-05-18T11:34:56;6.20;;;2.83;;
59273;SDS011;45044;41.572;24.730;2023-05-18T11:42:58;5.15;;;2.28;;
59273;SDS011;45044;41.572;24.730;2023-05-18T11:45:25;4.10;;;2.10;;
59273;SDS011;45044;41.572;24.730;2023-05-18T11:47:55;3.63;;;1.98;;
59273;SDS011;45044;41.572;24.730;2023-05-18T11:50:29;3.83;;;1.42;;
59273;SDS011;45044;41.572;24.730;2023-05-18T11:52:57;4.22;;;2.10;;
59273;SDS011;45044;41.572;24.730;2023-05-18T11:55:24;6.68;;;2.80;;
59273;SDS011;45044;41.572;24.730;2023-05-18T11:58:04;4.60;;;2.70;;
59273;SDS011;45044;41.572;24.730;2023-05-18T12:00:34;5.85;;;2.67;;
59273;SDS011;45044;41.572;24.730;2023-05-18T12:03:02;4.93;;;2.35;;
59273;SDS011;45044;41.572;24.730;2023-05-18T12:05:30;4.20;;;1.92;;
59273;SDS011;45044;41.572;24.730;2023-05-18T12:07:57;4.15;;;2.25;;
59273;SDS011;45044;41.572;24.730;2023-05-18T12:10:25;3.83;;;1.95;;
59273;SDS011;45044;41.572;24.730;2023-05-18T12:12:52;3.92;;;1.90;;
59273;SDS011;45044;41.572;24.730;2023-05-18T12:15:23;4.28;;;2.20;;
59273;SDS011;45044;41.572;24.730;2023-05-18T12:17:50;4.13;;;1.80;;
59273;SDS011;45044;41.572;24.730;2023-05-18T12:20:18;4.32;;;1.83;;
59273;SDS011;45044;41.572;24.730;2023-05-18T12:22:51;4.32;;;1.90;;
59273;SDS011;45044;41.572;24.730;2023-05-18T12:25:19;5.28;;;2.22;;
59273;SDS011;45044;41.572;24.730;2023-05-18T12:27:50;3.08;;;1.70;;
59273;SDS011;45044;41.572;24.730;2023-05-18T12:30:22;4.00;;;2.10;;
59273;SDS011;45044;41.572;24.730;2023-05-18T12:32:52;5.72;;;2.15;;
59273;SDS011;45044;41.572;24.730;2023-05-18T12:35:24;5.50;;;2.45;;
59273;SDS011;45044;41.572;24.730;2023-05-18T12:37:52;5.70;;;2.35;;
59273;SDS011;45044;41.572;24.730;2023-05-18T12:40:26;6.65;;;3.20;;
59273;SDS011;45044;41.572;24.730;2023-05-18T12:42:54;4.63;;;2.63;;
59273;SDS011;45044;41.572;24.730;2023-05-18T12:45:24;3.08;;;2.10;;
59273;SDS011;45044;41.572;24.730;2023-05-18T12:47:53;5.28;;;2.03;;
59273;SDS011;45044;41.572;24.730;2023-05-18T12:50:22;3.63;;;1.83;;
59273;SDS011;45044;41.572;24.730;2023-05-18T12:52:51;6.03;;;2.45;;
59273;SDS011;45044;41.572;24.730;2023-05-18T12:55:20;5.75;;;2.70;;
59273;SDS011;45044;41.572;24.730;2023-05-18T12:57:58;4.63;;;1.98;;
59273;SDS011;45044;41.572;24.730;2023-05-18T13:00:35;3.42;;;2.22;;
59273;SDS011;45044;41.572;24.730;2023-05-18T13:03:09;5.28;;;2.00;;
59273;SDS011;45044;41.572;24.730;2023-05-18T13:05:41;4.90;;;2.38;;
59273;SDS011;45044;41.572;24.730;2023-05-18T13:08:14;2.90;;;1.63;;
59273;SDS011;45044;41.572;24.730;2023-05-18T13:10:43;3.50;;;1.65;;
59273;SDS011;45044;41.572;24.730;2023-05-18T13:13:13;4.40;;;2.55;;
59273;SDS011;45044;41.572;24.730;2023-05-18T13:15:42;5.80;;;3.08;;
59273;SDS011;45044;41.572;24.730;2023-05-18T13:18:10;4.90;;;2.53;;
59273;SDS011;45044;41.572;24.730;2023-05-18T13:23:14;5.35;;;2.67;;
59273;SDS011;45044;41.572;24.730;2023-05-18T13:25:42;6.32;;;3.08;;
59273;SDS011;45044;41.572;24.730;2023-05-18T13:28:10;5.18;;;3.15;;
59273;SDS011;45044;41.572;24.730;2023-05-18T13:30:38;5.82;;;3.22;;
59273;SDS011;45044;41.572;24.730;2023-05-18T13:33:07;7.05;;;3.88;;
59273;SDS011;45044;41.572;24.730;2023-05-18T13:35:38;7.80;;;4.68;;
59273;SDS011;45044;41.572;24.730;2023-05-18T13:38:11;4.47;;;2.55;;
59273;SDS011;45044;41.572;24.730;2023-05-18T13:40:39;6.13;;;3.22;;
59273;SDS011;45044;41.572;24.730;2023-05-18T13:43:07;8.48;;;4.40;;
59273;SDS011;45044;41.572;24.730;2023-05-18T13:45:38;6.00;;;3.15;;
59273;SDS011;45044;41.572;24.730;2023-05-18T13:48:05;6.63;;;2.88;;
59273;SDS011;45044;41.572;24.730;2023-05-18T13:50:36;7.20;;;3.42;;
59273;SDS011;45044;41.572;24.730;2023-05-18T13:53:03;5.10;;;3.17;;
59273;SDS011;45044;41.572;24.730;2023-05-18T13:55:30;5.75;;;3.00;;
59273;SDS011;45044;41.572;24.730;2023-05-18T13:57:58;7.85;;;4.25;;
59273;SDS011;45044;41.572;24.730;2023-05-18T14:00:26;7.82;;;4.50;;
59273;SDS011;45044;41.572;24.730;2023-05-18T14:02:53;7.50;;;4.10;;
59273;SDS011;45044;41.572;24.730;2023-05-18T14:05:20;7.57;;;4.13;;
59273;SDS011;45044;41.572;24.730;2023-05-18T14:07:47;8.25;;;4.35;;
59273;SDS011;45044;41.572;24.730;2023-05-18T14:10:14;7.28;;;4.18;;
59273;SDS011;45044;41.572;24.730;2023-05-18T14:12:41;7.03;;;4.30;;
59273;SDS011;45044;41.572;24.730;2023-05-18T14:15:08;10.35;;;6.35;;
59273;SDS011;45044;41.572;24.730;2023-05-18T14:17:35;7.72;;;4.75;;
59273;SDS011;45044;41.572;24.730;2023-05-18T14:20:02;7.05;;;4.22;;
59273;SDS011;45044;41.572;24.730;2023-05-18T14:22:32;10.60;;;5.82;;
59273;SDS011;45044;41.572;24.730;2023-05-18T14:24:59;15.30;;;9.73;;
59273;SDS011;45044;41.572;24.730;2023-05-18T14:27:27;10.02;;;6.60;;
59273;SDS011;45044;41.572;24.730;2023-05-18T14:29:54;10.80;;;4.18;;
59273;SDS011;45044;41.572;24.730;2023-05-18T14:32:21;7.63;;;3.55;;
59273;SDS011;45044;41.572;24.730;2023-05-18T14:34:48;7.60;;;4.97;;
59273;SDS011;45044;41.572;24.730;2023-05-18T14:37:21;6.25;;;3.33;;
59273;SDS011;45044;41.572;24.730;2023-05-18T14:39:47;8.38;;;4.50;;
59273;SDS011;45044;41.572;24.730;2023-05-18T14:42:14;15.32;;;8.88;;
59273;SDS011;45044;41.572;24.730;2023-05-18T14:44:41;7.93;;;5.30;;
59273;SDS011;45044;41.572;24.730;2023-05-18T14:47:08;11.68;;;6.88;;
59273;SDS011;45044;41.572;24.730;2023-05-18T14:49:36;7.70;;;5.13;;
59273;SDS011;45044;41.572;24.730;2023-05-18T14:52:03;8.95;;;3.33;;
59273;SDS011;45044;41.572;24.730;2023-05-18T14:54:30;8.00;;;5.03;;
59273;SDS011;45044;41.572;24.730;2023-05-18T14:56:57;6.35;;;3.97;;
59273;SDS011;45044;41.572;24.730;2023-05-18T14:59:25;5.78;;;2.72;;